WetterOnline ( https://www.wetteronline.de )

Wetter aktuell Memmingen

Aktuelles Wetter: Leutkirch-Herlazhofen (671m)

6-stündlich | Neueste Meldungen
Ortszeit Temperatur Wetter
Mo, 05.12. 7:00 2.4° C bedeckt
Mo, 05.12. 1:00 0.2° C Nebel
So, 04.12. 19:00 0.4° C bedeckt
So, 04.12. 13:00 0.1° C bedeckt
So, 04.12. 7:00 -0.2° C bedeckt
So, 04.12. 1:00 0.3° C bedeckt
Sa, 03.12. 19:00 0.4° C bedeckt
Sa, 03.12. 13:00 0.3° C bedeckt
Ortszeit Temperatur Wetter
Mo, 05.12. 12:00 1.7° C leichter Regen
Mo, 05.12. 11:50 1.7° C leichter Regen
Mo, 05.12. 11:40 1.9° C leichter Regen
Mo, 05.12. 11:30 1.9° C leichter Regen
Mo, 05.12. 11:20 1.9° C leichter Regen
Mo, 05.12. 11:10 1.9° C Sprühregen
Mo, 05.12. 11:00 2.2° C leichter Regen
Mo, 05.12. 10:30 2.3° C leichter Regen
Mo, 05.12. 10:00 2.6° C leichter Regen
Mo, 05.12. 9:30 2.5° C bedeckt
Mo, 05.12. 9:00 2.8° C bedeckt
Ortszeit Relative Feuchte Sichtweite
Mo, 05.12. 7:00 93% 27 km
Mo, 05.12. 1:00 100% 0.5 km
So, 04.12. 19:00 97% 4.7 km
So, 04.12. 13:00 96% 7 km
So, 04.12. 7:00 96% 9 km
So, 04.12. 1:00 96% 12 km
Sa, 03.12. 19:00 92% 15 km
Sa, 03.12. 13:00 90% 29 km
Ortszeit Relative Feuchte Sichtweite
Mo, 05.12. 12:00 94% 10 km
Mo, 05.12. 11:50 94% -
Mo, 05.12. 11:40 94% -
Mo, 05.12. 11:30 95% 18 km
Mo, 05.12. 11:20 95% -
Mo, 05.12. 11:10 94% -
Mo, 05.12. 11:00 94% 24 km
Mo, 05.12. 10:30 94% 8 km
Mo, 05.12. 10:00 93% 13 km
Mo, 05.12. 9:30 92% 29 km
Mo, 05.12. 9:00 90% 45 km
Ortszeit Niederschlagsmenge Niederschlagsart
Mo, 05.12. 7:00 0.1 l/m2 in 12 Std. -
Mo, 05.12. 1:00 0.1 l/m2 in 6 Std. Sprühregen
So, 04.12. 19:00 0.1 l/m2 in 12 Std. -
So, 04.12. 13:00 0.1 l/m2 in 6 Std. Niederschlag
So, 04.12. 7:00 0.0 l/m2 in 12 Std. -
So, 04.12. 1:00 0.0 l/m2 in 6 Std. -
Sa, 03.12. 19:00 0.0 l/m2 in 12 Std. -
Sa, 03.12. 13:00 0.0 l/m2 in 6 Std. -
Ortszeit Niederschlagsmenge Niederschlagsart
Mo, 05.12. 12:00 0.1 l/m2 in 1 Std. Regen
Mo, 05.12. 11:50 keine Meldung -
Mo, 05.12. 11:40 keine Meldung -
Mo, 05.12. 11:30 <0.05 l/m2 in 30 Min -
Mo, 05.12. 11:20 keine Meldung -
Mo, 05.12. 11:10 keine Meldung -
Mo, 05.12. 11:00 0.2 l/m2 in 1 Std. Regen
Mo, 05.12. 10:30 <0.05 l/m2 in 30 Min -
Mo, 05.12. 10:00 <0.05 l/m2 in 1 Std. Regen
Mo, 05.12. 9:30 0.0 l/m2 in 30 Min -
Mo, 05.12. 9:00 0.0 l/m2 in 1 Std. -
Ortszeit Stärke Spitze Richtung
km/h Bft. km/h Grad Sektor
Mo, 05.12. 7:00 13 3 31 170° S
Mo, 05.12. 1:00 9 2 20 230° SW
So, 04.12. 19:00 4 1 18 230° SW
So, 04.12. 13:00 4 1 14 320° NW
So, 04.12. 7:00 9 2 19 50° NO
So, 04.12. 1:00 11 2 29 40° NO
Sa, 03.12. 19:00 11 2 29 60° NO
Sa, 03.12. 13:00 14 3 25 70° O
Ortszeit Stärke Spitze Richtung
km/h Bft. km/h Grad Sektor
Mo, 05.12. 12:00 18 3 25 210° SW
Mo, 05.12. 11:50 18 3 - 210° SW
Mo, 05.12. 11:40 14 3 - 210° SW
Mo, 05.12. 11:30 14 3 22 210° SW
Mo, 05.12. 11:20 14 3 - 210° SW
Mo, 05.12. 11:10 14 3 - 210° SW
Mo, 05.12. 11:00 13 3 26 220° SW
Mo, 05.12. 10:30 14 3 25 210° SW
Mo, 05.12. 10:00 19 3 30 220° SW
Mo, 05.12. 9:30 18 3 25 230° SW
Mo, 05.12. 9:00 9 2 17 220° SW
Ortszeit Untergrenze Bedeckung Gattung
total tief tief mittel hoch
Mo, 05.12. 7:00 1350 m 8/8 8/8 - - -
Mo, 05.12. 1:00 30 m 8/8 8/8 - - -
So, 04.12. 19:00 120 m 8/8 8/8 - - -
So, 04.12. 13:00 60 m 8/8 8/8 - - -
So, 04.12. 7:00 90 m 8/8 8/8 - - -
So, 04.12. 1:00 120 m 8/8 8/8 - - -
Sa, 03.12. 19:00 180 m 8/8 8/8 - - -
Sa, 03.12. 13:00 210 m 8/8 8/8 - - -
Ortszeit Bedeckungsgrad in Achtel und Wolkenuntergrenze
Mo, 05.12. 12:00 3(150m) 7(810m) 8(1260m)
Mo, 05.12. 11:50 3(150m) 7(810m) 8(1260m)
Mo, 05.12. 11:40 8
Mo, 05.12. 11:30 5(150m) 8(1080m) 8(1800m)
Mo, 05.12. 11:20 5(150m) 8(1080m) 8(1800m)
Mo, 05.12. 11:10 8
Mo, 05.12. 11:00 2(180m) 7(930m) 7(1800m)
Mo, 05.12. 10:30 2(240m) 7(840m) 7(1500m)
Mo, 05.12. 10:00 4(240m) 5(360m) 7(1500m)
Mo, 05.12. 9:30 1(390m) 8(1500m)
Mo, 05.12. 9:00 1(930m) 8(1500m)
Ortszeit Luftdruck NN (hPa) Tendenz (hPa in 3 Std.)
Mo, 05.12. 7:00 1019 + 0,5
Mo, 05.12. 1:00 1016 + 0,8
So, 04.12. 19:00 1014 + 0,3
So, 04.12. 13:00 1013 - 1,0
So, 04.12. 7:00 1014 0,0
So, 04.12. 1:00 1014 - 0,7
Sa, 03.12. 19:00 1015 - 0,8
Sa, 03.12. 13:00 1017 - 1,3
Ortszeit Luftdruck NN (hPa) Tendenz (hPa in 3 Std.)
Mo, 05.12. 12:00 1022 + 0,9
Mo, 05.12. 11:50 1022 keine Meldung
Mo, 05.12. 11:40 1022 keine Meldung
Mo, 05.12. 11:30 1022 + 1,3
Mo, 05.12. 11:20 1022 keine Meldung
Mo, 05.12. 11:10 1021 keine Meldung
Mo, 05.12. 11:00 1021 + 1,7
Mo, 05.12. 10:30 1021 + 1,9
Mo, 05.12. 10:00 1021 + 2,1
Mo, 05.12. 9:30 1021 + 2,0
Mo, 05.12. 9:00 1020 + 1,7
Ortszeit Schneehöhe (cm)
Mo, 05.12. 7:00 0
Mo, 05.12. 1:00 0
So, 04.12. 19:00 0
So, 04.12. 13:00 0
So, 04.12. 7:00 0
So, 04.12. 1:00 0
Sa, 03.12. 19:00 0
Sa, 03.12. 13:00 0
Ortszeit Schneehöhe (cm)
Mo, 05.12. 12:00 0
Mo, 05.12. 11:50 0
Mo, 05.12. 11:40 0
Mo, 05.12. 11:30 0
Mo, 05.12. 11:20 0
Mo, 05.12. 11:10 0
Mo, 05.12. 11:00 0
Mo, 05.12. 10:30 0
Mo, 05.12. 10:00 0
Mo, 05.12. 9:30 0
Mo, 05.12. 9:00 0
Link zu dieser Seite / Seite empfehlen

Das Wetter in ...